Time;durP1;ratioP1;P1;durP2;ratioP2;P2;SDS_P1;SDS_P2;PMS_P1;PMS_P2;Temp;Humidity;BMP_temperature;BMP_pressure;BME280_temperature;BME280_humidity;BME280_pressure;Samples;Min_cycle;Max_cycle;Signal;HPM_P1;HPM_P2
2023/09/07 00:01:52;;;;;;;10.93;6.15;;;;;;;;;;5044019;28;20037;-79
2023/09/07 00:04:19;;;;;;;7.68;6.05;;;;;;;;;;5043765;28;20363;-79
2023/09/07 00:06:45;;;;;;;8.52;6.03;;;;;;;;;;5043389;28;20026;-79
2023/09/07 00:09:13;;;;;;;7.22;5.65;;;;;;;;;;5043492;28;20044;-80
2023/09/07 00:11:39;;;;;;;6.90;6.10;;;;;;;;;;5043802;28;20029;-80
2023/09/07 00:14:05;;;;;;;7.00;6.40;;;;;;;;;;5043799;28;20025;-79
2023/09/07 00:16:35;;;;;;;8.50;6.53;;;;;;;;;;5042633;28;20036;-80
2023/09/07 00:19:02;;;;;;;;;;;;;;;;;;5044331;28;20021;-79
2023/09/07 00:21:29;;;;;;;6.68;5.97;;;;;;;;;;5043984;28;19905;-79
2023/09/07 00:24:05;;;;;;;7.18;5.88;;;;;;;;;;5043800;28;20424;-79
2023/09/07 00:26:31;;;;;;;6.78;6.00;;;;;;;;;;5026436;28;20091;-79
2023/09/07 00:28:57;;;;;;;6.40;5.80;;;;;;;;;;5042628;28;20084;-79
2023/09/07 00:31:23;;;;;;;6.10;5.50;;;;;;;;;;5024864;28;20379;-79
2023/09/07 00:33:49;;;;;;;6.75;6.15;;;;;;;;;;5042026;28;20032;-79
2023/09/07 00:36:15;;;;;;;7.85;5.97;;;;;;;;;;5025790;28;20038;-79
2023/09/07 00:38:41;;;;;;;6.38;5.78;;;;;;;;;;5043497;28;20041;-79
2023/09/07 00:41:07;;;;;;;6.75;5.65;;;;;;;;;;5043203;28;20026;-80
2023/09/07 00:43:33;;;;;;;8.25;6.10;;;;;;;;;;5023261;28;20026;-79
2023/09/07 00:45:59;;;;;;;8.23;6.00;;;;;;;;;;5024959;28;20029;-79
2023/09/07 00:48:25;;;;;;;6.47;5.88;;;;;;;;;;5043029;28;20068;-79
2023/09/07 00:50:51;;;;;;;8.15;5.72;;;;;;;;;;5025404;28;20025;-79
2023/09/07 00:53:17;;;;;;;6.57;5.93;;;;;;;;;;5043608;28;20053;-79
2023/09/07 00:55:44;;;;;;;6.85;6.13;;;;;;;;;;5042666;28;20053;-79
2023/09/07 00:58:12;;;;;;;7.85;5.85;;;;;;;;;;5041876;28;20068;-79
2023/09/07 01:00:38;;;;;;;6.28;5.68;;;;;;;;;;5024614;28;20030;-79
2023/09/07 01:03:04;;;;;;;8.80;6.25;;;;;;;;;;5042696;28;20081;-79
2023/09/07 01:05:35;;;;;;;8.30;6.63;;;;;;;;;;5042860;28;20052;-80
2023/09/07 01:08:07;;;;;;;7.55;6.57;;;;;;;;;;5042570;28;20037;-79
2023/09/07 01:10:33;;;;;;;7.15;6.30;;;;;;;;;;5042739;28;20108;-79
2023/09/07 01:12:59;;;;;;;7.13;6.43;;;;;;;;;;5042557;28;20057;-79
2023/09/07 01:15:25;;;;;;;10.15;6.47;;;;;;;;;;5042350;28;20057;-79
2023/09/07 01:17:51;;;;;;;8.85;6.20;;;;;;;;;;5042849;28;20112;-79
2023/09/07 01:20:18;;;;;;;9.68;6.75;;;;;;;;;;5025505;28;20036;-79
2023/09/07 01:22:44;;;;;;;8.60;6.28;;;;;;;;;;5043402;28;20061;-79
2023/09/07 01:25:10;;;;;;;6.95;6.28;;;;;;;;;;5043775;28;20026;-79
2023/09/07 01:27:36;;;;;;;7.28;5.97;;;;;;;;;;5043765;28;20029;-79
2023/09/07 01:30:03;;;;;;;8.23;6.75;;;;;;;;;;5043608;28;20368;-79
2023/09/07 01:32:29;;;;;;;7.55;6.40;;;;;;;;;;5042769;28;20029;-78
2023/09/07 01:34:57;;;;;;;8.75;7.05;;;;;;;;;;5042255;28;20075;-79
2023/09/07 01:37:23;;;;;;;7.68;6.95;;;;;;;;;;5042554;28;20075;-79
2023/09/07 01:39:49;;;;;;;8.55;6.75;;;;;;;;;;5043274;28;20387;-79
2023/09/07 01:42:16;;;;;;;8.27;6.38;;;;;;;;;;5043126;28;20068;-79
2023/09/07 01:44:43;;;;;;;7.82;6.78;;;;;;;;;;5042662;28;20183;-80
2023/09/07 01:47:09;;;;;;;8.80;7.15;;;;;;;;;;5044031;28;20033;-79
2023/09/07 01:49:35;;;;;;;8.88;7.40;;;;;;;;;;5044992;28;20026;-79
2023/09/07 01:52:02;;;;;;;8.43;7.28;;;;;;;;;;5044045;28;20138;-79
2023/09/07 01:54:28;;;;;;;8.85;7.65;;;;;;;;;;5044307;28;20025;-79
2023/09/07 01:56:54;;;;;;;8.43;7.25;;;;;;;;;;5044561;28;20028;-79
2023/09/07 01:59:20;;;;;;;8.57;7.78;;;;;;;;;;5024392;28;20116;-79
2023/09/07 02:01:46;;;;;;;8.50;7.45;;;;;;;;;;5041647;28;20029;-79
2023/09/07 02:04:12;;;;;;;8.65;7.53;;;;;;;;;;5043205;28;20030;-79
2023/09/07 02:06:39;;;;;;;8.13;7.28;;;;;;;;;;5042847;28;20017;-79
2023/09/07 02:09:05;;;;;;;7.55;6.78;;;;;;;;;;5024904;28;20071;-80
2023/09/07 02:11:31;;;;;;;8.82;7.40;;;;;;;;;;5023776;28;20033;-79
2023/09/07 02:13:57;;;;;;;8.93;7.53;;;;;;;;;;5023717;28;20025;-79
2023/09/07 02:16:23;;;;;;;8.00;7.15;;;;;;;;;;5041501;28;20100;-79
2023/09/07 02:18:50;;;;;;;7.93;7.13;;;;;;;;;;5042078;28;20028;-79
2023/09/07 02:21:16;;;;;;;9.73;7.93;;;;;;;;;;5042170;28;20029;-79
2023/09/07 02:23:42;;;;;;;8.43;7.30;;;;;;;;;;5042187;28;20048;-79
2023/09/07 02:26:08;;;;;;;9.23;8.13;;;;;;;;;;5023551;28;20029;-79
2023/09/07 02:28:34;;;;;;;8.88;7.47;;;;;;;;;;5041584;28;20029;-79
2023/09/07 02:31:04;;;;;;;9.45;7.47;;;;;;;;;;5041183;28;20025;-79
2023/09/07 02:33:31;;;;;;;9.35;8.25;;;;;;;;;;5040814;28;20064;-78
2023/09/07 02:35:58;;;;;;;9.32;7.70;;;;;;;;;;5041990;28;20533;-79
2023/09/07 02:38:24;;;;;;;8.55;7.65;;;;;;;;;;5041184;28;20036;-79
2023/09/07 02:40:50;;;;;;;8.82;7.93;;;;;;;;;;5041252;28;20621;-79
2023/09/07 02:43:16;;;;;;;8.77;7.80;;;;;;;;;;5022827;28;20030;-80
2023/09/07 02:45:42;;;;;;;8.35;7.53;;;;;;;;;;5040776;28;20049;-80
2023/09/07 02:48:08;;;;;;;10.57;7.55;;;;;;;;;;5042136;28;20029;-79
2023/09/07 02:50:35;;;;;;;8.57;7.57;;;;;;;;;;5042994;28;20037;-79
2023/09/07 02:53:02;;;;;;;9.55;8.55;;;;;;;;;;5042171;28;20053;-80
2023/09/07 02:55:28;;;;;;;14.45;8.23;;;;;;;;;;5041056;28;20017;-79
2023/09/07 02:57:55;;;;;;;9.73;8.23;;;;;;;;;;5041190;28;20032;-79
2023/09/07 03:00:22;;;;;;;8.98;7.25;;;;;;;;;;5040740;28;20052;-79
2023/09/07 03:02:48;;;;;;;9.23;8.30;;;;;;;;;;5042836;28;20081;-80
2023/09/07 03:05:15;;;;;;;8.95;7.57;;;;;;;;;;5042317;28;20049;-79
2023/09/07 03:07:41;;;;;;;11.85;8.20;;;;;;;;;;5041863;28;20159;-79
2023/09/07 03:10:07;;;;;;;9.40;8.05;;;;;;;;;;5043271;28;20032;-78
2023/09/07 03:12:33;;;;;;;9.80;8.02;;;;;;;;;;5042361;28;20037;-79
2023/09/07 03:15:03;;;;;;;9.10;8.13;;;;;;;;;;5041147;28;20033;-78
2023/09/07 03:17:30;;;;;;;;;;;;;;;;;;5042259;28;20025;-78
2023/09/07 03:19:56;;;;;;;9.25;7.43;;;;;;;;;;5041977;28;19905;-78
2023/09/07 03:22:25;;;;;;;9.07;7.90;;;;;;;;;;5042852;28;20352;-78
2023/09/07 03:24:52;;;;;;;10.00;8.13;;;;;;;;;;5025539;28;20037;-78
2023/09/07 03:27:18;;;;;;;10.05;7.85;;;;;;;;;;5025157;28;20063;-78
2023/09/07 03:29:51;;;;;;;8.80;7.82;;;;;;;;;;5042004;28;20022;-78
2023/09/07 03:32:17;;;;;;;9.45;8.05;;;;;;;;;;5042042;28;20056;-78
2023/09/07 03:34:43;;;;;;;11.00;8.73;;;;;;;;;;5041742;28;20459;-78
2023/09/07 03:37:11;;;;;;;9.93;8.23;;;;;;;;;;5042379;28;20045;-78
2023/09/07 03:39:37;;;;;;;10.15;7.70;;;;;;;;;;5023708;28;20046;-78
2023/09/07 03:42:03;;;;;;;10.80;7.95;;;;;;;;;;5023758;28;20030;-78
2023/09/07 03:44:29;;;;;;;9.77;7.47;;;;;;;;;;5042059;28;20084;-78
2023/09/07 03:46:55;;;;;;;9.85;7.95;;;;;;;;;;5042461;28;20030;-78
2023/09/07 03:49:21;;;;;;;11.25;8.15;;;;;;;;;;5041901;28;20029;-78
2023/09/07 03:51:47;;;;;;;8.77;7.40;;;;;;;;;;5043509;28;20060;-79
2023/09/07 03:54:13;;;;;;;10.43;8.25;;;;;;;;;;5027099;28;20025;-78
2023/09/07 03:56:39;;;;;;;9.23;7.95;;;;;;;;;;5025793;28;20028;-78
2023/09/07 03:59:05;;;;;;;9.00;7.93;;;;;;;;;;5044916;28;20112;-79
2023/09/07 04:01:33;;;;;;;9.05;8.15;;;;;;;;;;5044868;28;20432;-78
2023/09/07 04:03:59;;;;;;;9.35;8.40;;;;;;;;;;5027825;28;20034;-78
2023/09/07 04:06:24;;;;;;;11.18;8.57;;;;;;;;;;5043439;28;20079;-78
2023/09/07 04:08:50;;;;;;;10.52;8.38;;;;;;;;;;5044288;28;20021;-78
2023/09/07 04:11:16;;;;;;;9.05;8.15;;;;;;;;;;5043252;28;20025;-78
2023/09/07 04:13:42;;;;;;;9.40;7.72;;;;;;;;;;5026568;28;20043;-79
2023/09/07 04:16:10;;;;;;;10.80;8.38;;;;;;;;;;5044073;28;20040;-78
2023/09/07 04:18:36;;;;;;;11.40;8.30;;;;;;;;;;5028467;28;20053;-78
2023/09/07 04:21:08;;;;;;;10.77;8.45;;;;;;;;;;5047560;28;20030;-78
2023/09/07 04:23:35;;;;;;;9.00;8.10;;;;;;;;;;5053893;28;20040;-79
2023/09/07 04:26:11;;;;;;;9.63;8.63;;;;;;;;;;5045457;28;20030;-78
2023/09/07 04:28:37;;;;;;;9.45;8.45;;;;;;;;;;5049376;28;20017;-78
2023/09/07 04:31:05;;;;;;;10.20;8.43;;;;;;;;;;5035718;28;20168;-78
2023/09/07 04:33:33;;;;;;;9.98;8.32;;;;;;;;;;5053439;28;20661;-77
2023/09/07 04:36:13;;;;;;;9.93;8.80;;;;;;;;;;5057410;28;20036;-77
2023/09/07 04:38:39;;;;;;;8.90;7.50;;;;;;;;;;5046345;28;20071;-78
2023/09/07 04:41:14;;;;;;;12.32;8.77;;;;;;;;;;5037699;28;20448;-78
2023/09/07 04:43:42;;;;;;;12.48;8.57;;;;;;;;;;5044276;28;20029;-78
2023/09/07 04:46:09;;;;;;;9.55;8.38;;;;;;;;;;5039299;28;20044;-78
2023/09/07 04:48:35;;;;;;;12.45;8.93;;;;;;;;;;5027013;28;20036;-76
2023/09/07 04:51:05;;;;;;;6.13;5.45;;;;;;;;;;5034129;28;20025;-75
2023/09/07 04:53:32;;;;;;;6.55;5.95;;;;;;;;;;5033903;28;20052;-76
2023/09/07 04:55:59;;;;;;;9.48;8.48;;;;;;;;;;5034114;28;20022;-76
2023/09/07 04:58:25;;;;;;;10.05;7.55;;;;;;;;;;5034259;28;20075;-77
2023/09/07 05:00:51;;;;;;;9.05;8.10;;;;;;;;;;5034250;28;20022;-76
2023/09/07 05:03:17;;;;;;;10.35;8.77;;;;;;;;;;5034121;28;20029;-76
2023/09/07 05:05:44;;;;;;;9.05;7.47;;;;;;;;;;5034052;28;20101;-76
2023/09/07 05:08:10;;;;;;;8.45;7.60;;;;;;;;;;5033580;28;20364;-76
2023/09/07 05:10:36;;;;;;;10.25;8.43;;;;;;;;;;5033977;28;20037;-76
2023/09/07 05:13:02;;;;;;;9.45;8.05;;;;;;;;;;5016008;28;20025;-76
2023/09/07 05:15:29;;;;;;;8.95;7.47;;;;;;;;;;5034281;28;20101;-76
2023/09/07 05:17:55;;;;;;;8.95;8.05;;;;;;;;;;5033957;28;20540;-76
2023/09/07 05:20:21;;;;;;;9.05;7.20;;;;;;;;;;5033827;28;20029;-76
2023/09/07 05:22:47;;;;;;;7.68;6.72;;;;;;;;;;5033653;28;20474;-76
2023/09/07 05:25:13;;;;;;;8.88;7.22;;;;;;;;;;5033686;28;20040;-76
2023/09/07 05:27:39;;;;;;;9.70;7.20;;;;;;;;;;5033972;28;20025;-76
2023/09/07 05:30:06;;;;;;;8.35;7.43;;;;;;;;;;5033674;28;20023;-76
2023/09/07 05:32:32;;;;;;;7.57;6.82;;;;;;;;;;5033618;28;20029;-76
2023/09/07 05:34:58;;;;;;;8.32;7.53;;;;;;;;;;5033547;28;20353;-76
2023/09/07 05:37:24;;;;;;;9.23;7.32;;;;;;;;;;5033497;28;20101;-76
2023/09/07 05:39:50;;;;;;;9.20;7.18;;;;;;;;;;5033304;28;20029;-76
2023/09/07 05:42:16;;;;;;;8.18;7.15;;;;;;;;;;5033290;28;20463;-76
2023/09/07 05:44:42;;;;;;;10.15;7.47;;;;;;;;;;5033665;28;20120;-76
2023/09/07 05:47:08;;;;;;;7.72;6.93;;;;;;;;;;5033357;28;20030;-76
2023/09/07 05:49:34;;;;;;;8.45;7.18;;;;;;;;;;5033310;28;20030;-76
2023/09/07 05:52:00;;;;;;;13.27;7.72;;;;;;;;;;5032847;28;20061;-77
2023/09/07 05:54:26;;;;;;;9.65;7.00;;;;;;;;;;5015509;28;20042;-76
2023/09/07 05:56:53;;;;;;;8.88;7.82;;;;;;;;;;5033087;28;20047;-76
2023/09/07 05:59:19;;;;;;;8.60;7.70;;;;;;;;;;5032891;28;20104;-76
2023/09/07 06:01:45;;;;;;;10.60;7.63;;;;;;;;;;5049136;28;20590;-76
2023/09/07 06:04:12;;;;;;;8.65;7.50;;;;;;;;;;5034833;28;20558;-76
2023/09/07 06:06:37;;;;;;;10.55;7.80;;;;;;;;;;5053185;28;20028;-76
2023/09/07 06:09:04;;;;;;;9.48;7.43;;;;;;;;;;5052777;28;20025;-76
2023/09/07 06:11:31;;;;;;;9.30;7.57;;;;;;;;;;5034829;28;20359;-76
2023/09/07 06:13:57;;;;;;;8.30;6.88;;;;;;;;;;5053007;28;20020;-76
2023/09/07 06:16:23;;;;;;;11.15;7.55;;;;;;;;;;5034948;28;20040;-76
2023/09/07 06:18:50;;;;;;;8.70;7.43;;;;;;;;;;5052841;28;20025;-76
2023/09/07 06:21:16;;;;;;;9.70;7.32;;;;;;;;;;5052470;28;20021;-76
2023/09/07 06:23:42;;;;;;;9.07;8.13;;;;;;;;;;5054441;28;20032;-76
2023/09/07 06:26:08;;;;;;;8.48;7.57;;;;;;;;;;5053611;28;20025;-76
2023/09/07 06:28:34;;;;;;;11.60;8.57;;;;;;;;;;5052932;28;20137;-76
2023/09/07 06:31:00;;;;;;;8.93;7.63;;;;;;;;;;5052583;28;20036;-76
2023/09/07 06:33:26;;;;;;;10.32;7.35;;;;;;;;;;5052513;28;20029;-76
2023/09/07 06:35:52;;;;;;;10.80;8.18;;;;;;;;;;5052450;28;20112;-76
2023/09/07 06:38:18;;;;;;;11.02;7.43;;;;;;;;;;5052755;28;20052;-76
2023/09/07 06:40:50;;;;;;;10.60;8.05;;;;;;;;;;5052415;28;20021;-76
2023/09/07 06:43:16;;;;;;;10.82;8.38;;;;;;;;;;5052953;28;20075;-76
2023/09/07 06:45:42;;;;;;;9.77;8.60;;;;;;;;;;5052970;28;20033;-76
2023/09/07 06:48:09;;;;;;;9.75;8.45;;;;;;;;;;5052639;28;20340;-77
2023/09/07 06:50:35;;;;;;;11.05;8.02;;;;;;;;;;5052308;28;20108;-78
2023/09/07 06:53:01;;;;;;;11.45;8.15;;;;;;;;;;5052577;28;20048;-76
2023/09/07 06:55:27;;;;;;;10.23;8.20;;;;;;;;;;5052663;28;20470;-76
2023/09/07 06:57:55;;;;;;;8.88;7.72;;;;;;;;;;5052541;28;20041;-76
2023/09/07 07:00:21;;;;;;;10.93;7.22;;;;;;;;;;5035604;28;20025;-76
2023/09/07 07:02:47;;;;;;;10.82;8.00;;;;;;;;;;5052569;28;20171;-77
2023/09/07 07:05:13;;;;;;;8.85;7.13;;;;;;;;;;5052307;28;20111;-77
2023/09/07 07:07:39;;;;;;;8.20;6.68;;;;;;;;;;5051897;28;20583;-76
2023/09/07 07:10:06;;;;;;;8.88;7.15;;;;;;;;;;5051299;28;20505;-77
2023/09/07 07:12:37;;;;;;;8.63;6.35;;;;;;;;;;5032354;28;20033;-77
2023/09/07 07:15:04;;;;;;;7.28;6.45;;;;;;;;;;5032383;28;20414;-77
2023/09/07 07:17:30;;;;;;;7.53;6.68;;;;;;;;;;5032278;28;20671;-77
2023/09/07 07:19:56;;;;;;;7.72;6.95;;;;;;;;;;5032186;28;20029;-77
2023/09/07 07:22:22;;;;;;;7.15;6.35;;;;;;;;;;5032044;28;20034;-77
2023/09/07 07:24:48;;;;;;;8.82;6.80;;;;;;;;;;5032040;28;20607;-77
2023/09/07 07:27:15;;;;;;;7.70;7.00;;;;;;;;;;5032244;28;20569;-77
2023/09/07 07:29:41;;;;;;;7.90;6.80;;;;;;;;;;5032282;28;20013;-77
2023/09/07 07:32:06;;;;;;;7.53;6.68;;;;;;;;;;5034042;28;20444;-77
2023/09/07 07:34:33;;;;;;;7.88;6.82;;;;;;;;;;5035783;28;20026;-77
2023/09/07 07:36:59;;;;;;;7.45;6.75;;;;;;;;;;5036380;28;20468;-77
2023/09/07 07:39:25;;;;;;;7.13;6.40;;;;;;;;;;5041269;28;20024;-77
2023/09/07 07:41:51;;;;;;;7.75;6.47;;;;;;;;;;5049265;28;20071;-77
2023/09/07 07:44:17;;;;;;;7.47;6.20;;;;;;;;;;5035407;28;20034;-77
2023/09/07 07:46:43;;;;;;;7.07;6.38;;;;;;;;;;5035581;28;20034;-78
2023/09/07 07:49:09;;;;;;;7.60;6.60;;;;;;;;;;5035952;28;20518;-78
2023/09/07 07:51:35;;;;;;;7.22;6.53;;;;;;;;;;5035292;28;20542;-78
2023/09/07 07:54:04;;;;;;;8.27;6.28;;;;;;;;;;5035842;28;20056;-78
2023/09/07 07:56:30;;;;;;;7.25;6.57;;;;;;;;;;5035512;28;20025;-78
2023/09/07 07:58:56;;;;;;;7.55;6.35;;;;;;;;;;5035330;28;20475;-79
2023/09/07 08:01:23;;;;;;;7.90;7.20;;;;;;;;;;5035612;28;20025;-79
2023/09/07 08:03:49;;;;;;;8.88;6.90;;;;;;;;;;5017415;28;20030;-79
2023/09/07 08:06:15;;;;;;;6.97;5.93;;;;;;;;;;5035447;28;20034;-79
2023/09/07 08:08:41;;;;;;;7.88;6.90;;;;;;;;;;5035596;28;20443;-79
2023/09/07 08:11:08;;;;;;;7.65;6.95;;;;;;;;;;5035243;28;20024;-79
2023/09/07 08:13:34;;;;;;;7.63;7.00;;;;;;;;;;5035348;28;20026;-79
2023/09/07 08:16:01;;;;;;;6.93;6.22;;;;;;;;;;5034993;28;20699;-79
2023/09/07 08:18:28;;;;;;;8.98;6.38;;;;;;;;;;5034952;28;20386;-79
2023/09/07 08:20:54;;;;;;;6.70;6.20;;;;;;;;;;5035034;28;20036;-79
2023/09/07 08:23:22;;;;;;;7.35;6.55;;;;;;;;;;5034788;28;20113;-79
2023/09/07 08:25:48;;;;;;;7.53;6.72;;;;;;;;;;5035078;28;20383;-79
2023/09/07 08:28:15;;;;;;;6.97;6.38;;;;;;;;;;5034695;28;20117;-79
2023/09/07 08:30:41;;;;;;;7.60;6.80;;;;;;;;;;5035033;28;20017;-79
2023/09/07 08:33:08;;;;;;;7.18;6.57;;;;;;;;;;5034658;28;20391;-77
2023/09/07 08:35:35;;;;;;;8.15;6.68;;;;;;;;;;5034832;28;20499;-76
2023/09/07 08:38:04;;;;;;;8.20;6.70;;;;;;;;;;5034831;28;20699;-76
2023/09/07 08:40:32;;;;;;;7.85;6.65;;;;;;;;;;5034740;28;20014;-77
2023/09/07 08:43:00;;;;;;;8.67;6.30;;;;;;;;;;5033822;28;20017;-77
2023/09/07 08:45:29;;;;;;;7.72;6.93;;;;;;;;;;5034380;28;20029;-78
2023/09/07 08:47:56;;;;;;;7.85;7.05;;;;;;;;;;5034523;28;20048;-79
2023/09/07 08:50:23;;;;;;;7.75;6.95;;;;;;;;;;5034514;28;20163;-79
2023/09/07 08:52:51;;;;;;;7.38;6.68;;;;;;;;;;5034453;28;20518;-79
2023/09/07 08:55:17;;;;;;;6.85;6.25;;;;;;;;;;5034476;28;20036;-79
2023/09/07 08:57:43;;;;;;;8.45;6.97;;;;;;;;;;5034326;28;20013;-79
2023/09/07 09:00:16;;;;;;;7.28;6.60;;;;;;;;;;5034611;28;20036;-79
2023/09/07 09:02:42;;;;;;;7.60;6.90;;;;;;;;;;5034488;28;20021;-80
2023/09/07 09:05:10;;;;;;;7.22;6.55;;;;;;;;;;5034273;28;20033;-80
2023/09/07 09:07:37;;;;;;;7.55;6.85;;;;;;;;;;5034464;28;20057;-79
2023/09/07 09:10:07;;;;;;;7.10;6.50;;;;;;;;;;5034143;28;20021;-80
2023/09/07 09:12:33;;;;;;;7.43;6.72;;;;;;;;;;5034107;28;20097;-79
2023/09/07 09:15:00;;;;;;;7.30;6.15;;;;;;;;;;5034084;28;20018;-79
2023/09/07 09:17:26;;;;;;;6.97;6.38;;;;;;;;;;5033946;28;20021;-79
2023/09/07 09:19:52;;;;;;;6.78;6.13;;;;;;;;;;5033854;28;20072;-79
2023/09/07 09:22:19;;;;;;;6.78;6.13;;;;;;;;;;5033717;28;20887;-79
2023/09/07 09:24:48;;;;;;;6.60;6.00;;;;;;;;;;5034048;28;20076;-79
2023/09/07 09:27:14;;;;;;;6.60;6.00;;;;;;;;;;5033797;28;20422;-79
2023/09/07 09:29:40;;;;;;;10.93;6.22;;;;;;;;;;5033929;28;20105;-78
2023/09/07 09:32:07;;;;;;;6.55;5.78;;;;;;;;;;5033493;28;20036;-79
2023/09/07 09:34:34;;;;;;;6.47;5.88;;;;;;;;;;5013954;28;20045;-79
2023/09/07 09:37:00;;;;;;;7.22;5.90;;;;;;;;;;5013819;28;20468;-79
2023/09/07 09:39:26;;;;;;;6.20;5.60;;;;;;;;;;5013839;28;20068;-79
2023/09/07 09:41:53;;;;;;;8.60;5.70;;;;;;;;;;5013645;28;20022;-79
2023/09/07 09:44:21;;;;;;;6.68;5.40;;;;;;;;;;5016207;28;20076;-79
2023/09/07 09:46:48;;;;;;;5.85;5.35;;;;;;;;;;5014752;28;20026;-79
2023/09/07 09:49:15;;;;;;;8.05;5.88;;;;;;;;;;5013616;28;20620;-79
2023/09/07 09:51:43;;;;;;;6.78;6.00;;;;;;;;;;5015742;28;20058;-80
2023/09/07 09:54:10;;;;;;;8.07;5.80;;;;;;;;;;5013852;28;20093;-79
2023/09/07 09:56:36;;;;;;;6.00;5.50;;;;;;;;;;5013567;28;20024;-79
2023/09/07 09:59:02;;;;;;;6.75;6.03;;;;;;;;;;5013745;28;20037;-79
2023/09/07 10:01:29;;;;;;;6.97;5.90;;;;;;;;;;5013661;28;20026;-79
2023/09/07 10:03:55;;;;;;;6.22;5.63;;;;;;;;;;5013599;28;20032;-79
2023/09/07 10:06:24;;;;;;;5.68;5.15;;;;;;;;;;5013405;28;20029;-79
2023/09/07 10:08:59;;;;;;;6.30;5.70;;;;;;;;;;5017413;28;20026;-79
2023/09/07 10:11:32;;;;;;;6.82;5.38;;;;;;;;;;5015562;28;20030;-79
2023/09/07 10:13:59;;;;;;;8.68;5.30;;;;;;;;;;5013186;28;20032;-79
2023/09/07 10:16:27;;;;;;;6.03;5.30;;;;;;;;;;4995762;28;20033;-79
2023/09/07 10:18:53;;;;;;;7.00;5.20;;;;;;;;;;5013765;28;20468;-79
2023/09/07 10:21:19;;;;;;;6.75;5.03;;;;;;;;;;5013295;28;20026;-79
2023/09/07 10:23:46;;;;;;;5.70;5.15;;;;;;;;;;5013304;28;20045;-79
2023/09/07 10:26:13;;;;;;;5.97;5.07;;;;;;;;;;5013370;28;20038;-80
2023/09/07 10:28:39;;;;;;;5.22;4.70;;;;;;;;;;5013105;28;20028;-79
2023/09/07 10:31:14;;;;;;;5.55;4.80;;;;;;;;;;5013098;28;20030;-79
2023/09/07 10:33:40;;;;;;;5.38;4.85;;;;;;;;;;5013011;28;20129;-79
2023/09/07 10:36:06;;;;;;;5.68;4.93;;;;;;;;;;5012927;28;20028;-79
2023/09/07 10:38:36;;;;;;;6.07;5.10;;;;;;;;;;5012868;28;20028;-79
2023/09/07 10:41:04;;;;;;;5.07;4.68;;;;;;;;;;5012880;28;20022;-79
2023/09/07 10:43:30;;;;;;;5.57;4.60;;;;;;;;;;5013020;28;20026;-79
2023/09/07 10:45:57;;;;;;;6.20;4.60;;;;;;;;;;5012855;28;20026;-79
2023/09/07 10:48:23;;;;;;;5.13;4.63;;;;;;;;;;5012810;28;20113;-79
2023/09/07 10:50:51;;;;;;;5.53;4.65;;;;;;;;;;5012829;28;20018;-79
2023/09/07 10:53:28;;;;;;;5.13;4.63;;;;;;;;;;5027590;28;20053;-79
2023/09/07 10:55:55;;;;;;;4.93;4.43;;;;;;;;;;5032391;28;20048;-79
2023/09/07 10:58:31;;;;;;;5.15;4.65;;;;;;;;;;5032623;28;20022;-79
2023/09/07 11:00:57;;;;;;;6.25;4.28;;;;;;;;;;5032680;28;20033;-79
2023/09/07 11:03:25;;;;;;;4.53;4.22;;;;;;;;;;5033447;28;20045;-79
2023/09/07 11:05:52;;;;;;;5.50;4.53;;;;;;;;;;5034165;28;20049;-79
2023/09/07 11:08:19;;;;;;;5.75;3.83;;;;;;;;;;5038540;28;20025;-79
2023/09/07 11:10:45;;;;;;;5.90;4.40;;;;;;;;;;5038342;28;20025;-79
2023/09/07 11:13:11;;;;;;;5.93;4.55;;;;;;;;;;5038374;28;20112;-79
2023/09/07 11:15:39;;;;;;;4.03;3.67;;;;;;;;;;5039114;28;20072;-79
2023/09/07 11:18:09;;;;;;;6.97;4.70;;;;;;;;;;5038967;28;20025;-79
2023/09/07 11:20:35;;;;;;;6.95;4.30;;;;;;;;;;5039920;28;20021;-79
2023/09/07 11:23:01;;;;;;;4.55;4.10;;;;;;;;;;5039078;28;20040;-79
2023/09/07 11:25:27;;;;;;;7.03;4.70;;;;;;;;;;5039636;28;20486;-79
2023/09/07 11:27:57;;;;;;;5.32;4.32;;;;;;;;;;5038919;28;20033;-79
2023/09/07 11:30:24;;;;;;;6.35;4.07;;;;;;;;;;5039104;28;20350;-79
2023/09/07 11:32:50;;;;;;;6.18;4.40;;;;;;;;;;5038666;28;20029;-79
2023/09/07 11:35:16;;;;;;;4.55;4.15;;;;;;;;;;5037884;28;20022;-79
2023/09/07 11:37:42;;;;;;;4.50;4.10;;;;;;;;;;5038547;28;20053;-79
2023/09/07 11:40:12;;;;;;;4.65;4.30;;;;;;;;;;5038517;28;20437;-79
2023/09/07 11:42:41;;;;;;;4.57;4.07;;;;;;;;;;5039782;28;20088;-80
2023/09/07 11:45:09;;;;;;;4.22;3.83;;;;;;;;;;5039418;28;20025;-80
2023/09/07 11:47:35;;;;;;;4.63;4.22;;;;;;;;;;5039873;28;20013;-79
2023/09/07 11:50:02;;;;;;;8.13;4.00;;;;;;;;;;5039758;28;20036;-79
2023/09/07 11:52:29;;;;;;;6.57;4.05;;;;;;;;;;5039334;28;20053;-79
2023/09/07 11:54:55;;;;;;;4.68;4.20;;;;;;;;;;5035226;28;20026;-79
2023/09/07 11:57:21;;;;;;;4.57;4.18;;;;;;;;;;5019436;28;20064;-79
2023/09/07 11:59:47;;;;;;;4.82;4.25;;;;;;;;;;5019126;28;20097;-79
2023/09/07 12:02:14;;;;;;;6.40;4.05;;;;;;;;;;5020279;28;20302;-79
2023/09/07 12:04:40;;;;;;;5.45;4.30;;;;;;;;;;5019560;28;20018;-79
2023/09/07 12:07:07;;;;;;;4.35;3.95;;;;;;;;;;5019681;28;20028;-79
2023/09/07 12:09:33;;;;;;;5.43;4.03;;;;;;;;;;5019371;28;20029;-79
2023/09/07 12:11:59;;;;;;;5.13;4.30;;;;;;;;;;5019273;28;20025;-79
2023/09/07 12:14:25;;;;;;;4.72;4.10;;;;;;;;;;5020069;28;20108;-79
2023/09/07 12:16:51;;;;;;;4.82;4.43;;;;;;;;;;5017410;28;20050;-79
2023/09/07 12:19:17;;;;;;;6.47;4.60;;;;;;;;;;5015953;28;20105;-79
2023/09/07 12:21:45;;;;;;;8.80;4.10;;;;;;;;;;5015211;28;20080;-77
2023/09/07 12:24:12;;;;;;;5.70;4.43;;;;;;;;;;5021441;28;20034;-77
2023/09/07 12:26:38;;;;;;;4.63;3.88;;;;;;;;;;5033943;28;20021;-77
2023/09/07 12:29:04;;;;;;;6.82;4.50;;;;;;;;;;5033965;28;20053;-77
2023/09/07 12:31:31;;;;;;;4.82;4.43;;;;;;;;;;5033972;28;20629;-77
2023/09/07 12:33:57;;;;;;;5.47;4.22;;;;;;;;;;5033685;28;20471;-77
2023/09/07 12:36:23;;;;;;;4.25;3.95;;;;;;;;;;5033620;28;20036;-77
2023/09/07 12:38:49;;;;;;;6.78;4.38;;;;;;;;;;5033732;28;20017;-77
2023/09/07 12:41:15;;;;;;;4.72;4.22;;;;;;;;;;5025747;28;20053;-77
2023/09/07 12:43:44;;;;;;;6.47;4.43;;;;;;;;;;5014100;28;20038;-77
2023/09/07 12:46:10;;;;;;;8.45;4.13;;;;;;;;;;5013796;28;20116;-77
2023/09/07 12:48:36;;;;;;;6.90;4.38;;;;;;;;;;5028460;28;20100;-78
2023/09/07 12:51:02;;;;;;;4.30;3.90;;;;;;;;;;5033770;28;20652;-77
2023/09/07 12:53:29;;;;;;;5.05;4.55;;;;;;;;;;5032929;28;20156;-77
2023/09/07 12:55:55;;;;;;;4.60;4.10;;;;;;;;;;5033766;28;20112;-77
2023/09/07 12:58:21;;;;;;;7.00;4.32;;;;;;;;;;5033170;28;20029;-77
2023/09/07 13:00:51;;;;;;;4.72;4.32;;;;;;;;;;5033120;28;20032;-77
2023/09/07 13:03:17;;;;;;;4.40;4.00;;;;;;;;;;5033368;28;20026;-76
2023/09/07 13:05:44;;;;;;;4.25;3.90;;;;;;;;;;5032748;28;20044;-76
2023/09/07 13:08:10;;;;;;;6.47;4.53;;;;;;;;;;5032873;28;20018;-77
2023/09/07 13:10:36;;;;;;;4.82;4.38;;;;;;;;;;5033005;28;20671;-77
2023/09/07 13:13:03;;;;;;;5.55;4.47;;;;;;;;;;5031366;28;20108;-77
2023/09/07 13:15:29;;;;;;;5.13;3.53;;;;;;;;;;5032636;28;20022;-77
2023/09/07 13:17:55;;;;;;;5.63;3.97;;;;;;;;;;5033755;28;20021;-78
2023/09/07 13:20:21;;;;;;;5.53;3.92;;;;;;;;;;5020687;28;20361;-78
2023/09/07 13:22:47;;;;;;;4.55;3.97;;;;;;;;;;5033695;28;20451;-78
2023/09/07 13:25:13;;;;;;;5.53;3.88;;;;;;;;;;5033629;28;20455;-78
2023/09/07 13:27:39;;;;;;;4.30;3.85;;;;;;;;;;5033027;28;20464;-77
2023/09/07 13:30:07;;;;;;;5.93;4.03;;;;;;;;;;5032989;28;20036;-78
2023/09/07 13:32:34;;;;;;;4.83;3.83;;;;;;;;;;5033711;28;20641;-78
2023/09/07 13:35:00;;;;;;;4.30;3.90;;;;;;;;;;5033272;28;20043;-78
2023/09/07 13:37:26;;;;;;;5.10;4.10;;;;;;;;;;5021515;28;20017;-78
2023/09/07 13:39:52;;;;;;;5.03;3.80;;;;;;;;;;5032542;28;20027;-77
2023/09/07 13:42:18;;;;;;;5.78;4.20;;;;;;;;;;5033176;28;20025;-77
2023/09/07 13:44:47;;;;;;;5.35;4.18;;;;;;;;;;5033245;28;20080;-77
2023/09/07 13:47:13;;;;;;;4.95;4.40;;;;;;;;;;5033155;28;20446;-77
2023/09/07 13:49:39;;;;;;;5.55;4.43;;;;;;;;;;5032977;28;20047;-77
2023/09/07 13:52:05;;;;;;;4.00;3.60;;;;;;;;;;5031794;28;20440;-78
2023/09/07 13:54:31;;;;;;;4.60;4.20;;;;;;;;;;5032913;28;20026;-77
2023/09/07 13:56:57;;;;;;;5.38;4.10;;;;;;;;;;5032812;28;20022;-77
2023/09/07 13:59:25;;;;;;;6.15;3.80;;;;;;;;;;5032919;28;20026;-77
2023/09/07 14:01:51;;;;;;;4.47;3.85;;;;;;;;;;5032959;28;20029;-77
2023/09/07 14:04:17;;;;;;;5.50;4.05;;;;;;;;;;5033191;28;20053;-77
2023/09/07 14:06:43;;;;;;;4.85;4.35;;;;;;;;;;5032803;28;20072;-78
2023/09/07 14:09:09;;;;;;;4.40;3.90;;;;;;;;;;5027222;28;20053;-78
2023/09/07 14:11:35;;;;;;;5.75;4.45;;;;;;;;;;5024103;28;20088;-77
2023/09/07 14:14:01;;;;;;;5.35;4.55;;;;;;;;;;5030154;28;20078;-78
2023/09/07 14:16:28;;;;;;;4.53;4.13;;;;;;;;;;5023918;28;20034;-77
2023/09/07 14:18:55;;;;;;;8.32;4.25;;;;;;;;;;5029142;28;20037;-77
2023/09/07 14:21:21;;;;;;;4.60;4.00;;;;;;;;;;5032392;28;20021;-77
2023/09/07 14:23:47;;;;;;;5.70;4.30;;;;;;;;;;5032135;28;20464;-77
2023/09/07 14:26:13;;;;;;;4.50;4.05;;;;;;;;;;5032152;28;20025;-76
2023/09/07 14:28:39;;;;;;;5.63;4.45;;;;;;;;;;5014535;28;20033;-77
2023/09/07 14:31:07;;;;;;;5.32;4.10;;;;;;;;;;5032118;28;20696;-77
2023/09/07 14:33:34;;;;;;;5.00;4.35;;;;;;;;;;5032191;28;20080;-77
2023/09/07 14:36:00;;;;;;;4.45;4.05;;;;;;;;;;5032426;28;20025;-77
2023/09/07 14:38:28;;;;;;;4.03;3.67;;;;;;;;;;5019197;28;20017;-77
2023/09/07 14:40:55;;;;;;;5.15;4.10;;;;;;;;;;5020983;28;20018;-76